Time;durP1;ratioP1;P1;durP2;ratioP2;P2;SDS_P1;SDS_P2;PMS_P1;PMS_P2;Temp;Humidity;BMP_temperature;BMP_pressure;BME280_temperature;BME280_humidity;BME280_pressure;Samples;Min_cycle;Max_cycle;Signal;HPM_P1;HPM_P2
2023/05/25 00:00:58;;;;;;;3.78;2.35;;;;;;;;;;5064858;28;20240;-70
2023/05/25 00:03:26;;;;;;;3.40;2.25;;;;;;;;;;5064473;28;20244;-70
2023/05/25 00:05:54;;;;;;;7.82;2.13;;;;;;;;;;5064704;28;20275;-70
2023/05/25 00:08:20;;;;;;;5.25;2.22;;;;;;;;;;5064766;28;20205;-70
2023/05/25 00:10:46;;;;;;;5.28;2.25;;;;;;;;;;5064533;28;20197;-70
2023/05/25 00:13:12;;;;;;;4.18;2.00;;;;;;;;;;5064370;28;20201;-70
2023/05/25 00:15:39;;;;;;;6.22;2.40;;;;;;;;;;5064631;28;20508;-70
2023/05/25 00:18:05;;;;;;;3.45;2.08;;;;;;;;;;5064430;28;20244;-70
2023/05/25 00:20:33;;;;;;;6.45;2.28;;;;;;;;;;5064250;28;20213;-70
2023/05/25 00:23:01;;;;;;;5.18;2.63;;;;;;;;;;5064258;28;20464;-70
2023/05/25 00:25:27;;;;;;;6.57;2.55;;;;;;;;;;5064561;28;20197;-70
2023/05/25 00:27:53;;;;;;;8.05;2.85;;;;;;;;;;5064235;28;20574;-70
2023/05/25 00:30:20;;;;;;;7.35;2.35;;;;;;;;;;5064050;28;20197;-70
2023/05/25 00:32:46;;;;;;;6.15;2.65;;;;;;;;;;5064009;28;20199;-70
2023/05/25 00:35:12;;;;;;;6.30;2.70;;;;;;;;;;5064085;28;20293;-70
2023/05/25 00:37:39;;;;;;;9.77;2.58;;;;;;;;;;5064077;28;20527;-70
2023/05/25 00:40:09;;;;;;;3.20;2.42;;;;;;;;;;5064064;28;20259;-70
2023/05/25 00:42:38;;;;;;;4.15;2.38;;;;;;;;;;5063241;28;20259;-70
2023/05/25 00:45:05;;;;;;;5.20;2.90;;;;;;;;;;5063856;28;20220;-70
2023/05/25 00:47:32;;;;;;;6.30;2.63;;;;;;;;;;5063982;28;20203;-70
2023/05/25 00:50:00;;;;;;;4.97;2.17;;;;;;;;;;5063599;28;20374;-70
2023/05/25 00:52:26;;;;;;;4.93;2.58;;;;;;;;;;5063929;28;20204;-70
2023/05/25 00:54:54;;;;;;;3.35;2.35;;;;;;;;;;5063780;28;20527;-70
2023/05/25 00:57:23;;;;;;;4.13;2.70;;;;;;;;;;5063714;28;20197;-70
2023/05/25 00:59:50;;;;;;;4.78;2.72;;;;;;;;;;5063530;28;20392;-70
2023/05/25 01:02:18;;;;;;;5.28;2.78;;;;;;;;;;5063540;28;20224;-70
2023/05/25 01:04:46;;;;;;;6.47;2.88;;;;;;;;;;5063556;28;20193;-70
2023/05/25 01:07:17;;;;;;;4.95;2.40;;;;;;;;;;5063235;28;20203;-70
2023/05/25 01:09:44;;;;;;;5.07;2.50;;;;;;;;;;5063894;28;20204;-70
2023/05/25 01:12:11;;;;;;;5.47;2.85;;;;;;;;;;5063196;28;20197;-70
2023/05/25 01:14:39;;;;;;;7.53;2.88;;;;;;;;;;5063157;28;20216;-70
2023/05/25 01:17:06;;;;;;;8.60;2.97;;;;;;;;;;5063388;28;20207;-70
2023/05/25 01:19:34;;;;;;;5.00;2.53;;;;;;;;;;5063211;28;20205;-70
2023/05/25 01:22:04;;;;;;;3.63;2.70;;;;;;;;;;5063167;28;20201;-70
2023/05/25 01:24:32;;;;;;;7.82;2.95;;;;;;;;;;5062937;28;20212;-70
2023/05/25 01:27:01;;;;;;;3.88;2.80;;;;;;;;;;5063160;28;20197;-70
2023/05/25 01:29:28;;;;;;;6.03;2.90;;;;;;;;;;5063288;28;20197;-70
2023/05/25 01:31:55;;;;;;;5.25;3.00;;;;;;;;;;5063469;28;20496;-70
2023/05/25 01:34:22;;;;;;;2.95;2.50;;;;;;;;;;5062784;28;20254;-70
2023/05/25 01:36:49;;;;;;;8.02;3.00;;;;;;;;;;5062918;28;20197;-70
2023/05/25 01:39:17;;;;;;;4.53;2.58;;;;;;;;;;5063221;28;20543;-70
2023/05/25 01:41:43;;;;;;;8.90;2.90;;;;;;;;;;5063065;28;20197;-70
2023/05/25 01:44:09;;;;;;;7.93;2.88;;;;;;;;;;5062772;28;20221;-70
2023/05/25 01:46:37;;;;;;;5.22;2.92;;;;;;;;;;5062842;28;20217;-70
2023/05/25 01:49:09;;;;;;;6.35;3.05;;;;;;;;;;5062809;28;20204;-70
2023/05/25 01:51:38;;;;;;;5.90;2.97;;;;;;;;;;5062688;28;20226;-70
2023/05/25 01:54:07;;;;;;;12.77;4.22;;;;;;;;;;5061714;28;20193;-70
2023/05/25 01:56:35;;;;;;;7.45;3.47;;;;;;;;;;5062636;28;20200;-70
2023/05/25 01:59:02;;;;;;;7.03;3.83;;;;;;;;;;5062651;28;20197;-70
2023/05/25 02:01:28;;;;;;;6.78;3.60;;;;;;;;;;5062355;28;20204;-70
2023/05/25 02:03:54;;;;;;;6.97;3.97;;;;;;;;;;5062191;28;20528;-70
2023/05/25 02:06:21;;;;;;;5.70;3.25;;;;;;;;;;5062272;28;20205;-70
2023/05/25 02:08:47;;;;;;;7.53;3.72;;;;;;;;;;5062436;28;20201;-70
2023/05/25 02:11:14;;;;;;;6.40;3.25;;;;;;;;;;5062321;28;20198;-70
2023/05/25 02:13:41;;;;;;;5.30;3.10;;;;;;;;;;5062294;28;20381;-70
2023/05/25 02:16:08;;;;;;;6.75;3.40;;;;;;;;;;5062286;28;20219;-70
2023/05/25 02:18:34;;;;;;;5.40;3.00;;;;;;;;;;5062078;28;20197;-70
2023/05/25 02:21:01;;;;;;;7.32;3.58;;;;;;;;;;5062085;28;20197;-70
2023/05/25 02:23:27;;;;;;;8.32;3.13;;;;;;;;;;5062011;28;20221;-70
2023/05/25 02:25:54;;;;;;;7.50;3.42;;;;;;;;;;5062178;28;20197;-70
2023/05/25 02:28:21;;;;;;;7.10;3.35;;;;;;;;;;5062037;28;20292;-68
2023/05/25 02:30:48;;;;;;;5.22;3.40;;;;;;;;;;5062059;28;20201;-68
2023/05/25 02:33:14;;;;;;;6.40;3.00;;;;;;;;;;5061723;28;20256;-68
2023/05/25 02:35:41;;;;;;;4.55;2.75;;;;;;;;;;5062237;28;20198;-68
2023/05/25 02:38:07;;;;;;;5.55;3.08;;;;;;;;;;5062410;28;20466;-68
2023/05/25 02:40:33;;;;;;;5.43;2.90;;;;;;;;;;5062121;28;20550;-68
2023/05/25 02:42:59;;;;;;;7.28;3.47;;;;;;;;;;5061721;28;20555;-68
2023/05/25 02:45:26;;;;;;;6.97;3.20;;;;;;;;;;5062336;28;20489;-68
2023/05/25 02:47:53;;;;;;;5.32;2.90;;;;;;;;;;5061592;28;20205;-68
2023/05/25 02:50:20;;;;;;;5.47;3.17;;;;;;;;;;5062010;28;20397;-68
2023/05/25 02:52:46;;;;;;;7.05;3.35;;;;;;;;;;5061564;28;20197;-68
2023/05/25 02:55:13;;;;;;;6.95;3.13;;;;;;;;;;5061944;28;20197;-68
2023/05/25 02:57:39;;;;;;;5.30;3.15;;;;;;;;;;5061506;28;20197;-68
2023/05/25 03:00:06;;;;;;;6.78;2.83;;;;;;;;;;5061812;28;20453;-69
2023/05/25 03:02:33;;;;;;;5.38;3.10;;;;;;;;;;5061392;28;20559;-69
2023/05/25 03:05:01;;;;;;;8.75;3.67;;;;;;;;;;5062622;28;20204;-69
2023/05/25 03:07:28;;;;;;;9.05;3.20;;;;;;;;;;5065732;28;20197;-68
2023/05/25 03:09:54;;;;;;;7.13;3.63;;;;;;;;;;5065667;28;20197;-68
2023/05/25 03:12:20;;;;;;;8.60;3.63;;;;;;;;;;5065640;28;20235;-69
2023/05/25 03:14:46;;;;;;;7.13;3.58;;;;;;;;;;5065664;28;20201;-69
2023/05/25 03:17:13;;;;;;;5.53;3.75;;;;;;;;;;5065650;28;20201;-69
2023/05/25 03:19:39;;;;;;;6.72;3.20;;;;;;;;;;5065370;28;20197;-69
2023/05/25 03:22:07;;;;;;;4.88;3.38;;;;;;;;;;5065513;28;20243;-69
2023/05/25 03:24:33;;;;;;;9.40;3.90;;;;;;;;;;5065384;28;20225;-69
2023/05/25 03:27:00;;;;;;;11.20;4.88;;;;;;;;;;5065351;28;20208;-69
2023/05/25 03:29:27;;;;;;;11.18;6.00;;;;;;;;;;5065611;28;20204;-69
2023/05/25 03:31:53;;;;;;;13.52;5.28;;;;;;;;;;5065857;28;20253;-69
2023/05/25 03:34:19;;;;;;;6.95;3.88;;;;;;;;;;5065561;28;20193;-69
2023/05/25 03:36:46;;;;;;;10.57;4.15;;;;;;;;;;5065329;28;20235;-69
2023/05/25 03:39:13;;;;;;;8.65;3.97;;;;;;;;;;5065204;28;20242;-69
2023/05/25 03:41:41;;;;;;;6.63;3.78;;;;;;;;;;5065117;28;20197;-69
2023/05/25 03:44:09;;;;;;;8.43;3.85;;;;;;;;;;5064719;28;20259;-69
2023/05/25 03:46:35;;;;;;;9.90;4.20;;;;;;;;;;5065264;28;20251;-69
2023/05/25 03:49:02;;;;;;;6.63;3.92;;;;;;;;;;5065103;28;20201;-69
2023/05/25 03:51:28;;;;;;;9.38;3.88;;;;;;;;;;5065135;28;20243;-69
2023/05/25 03:53:54;;;;;;;11.10;4.32;;;;;;;;;;5064746;28;20197;-69
2023/05/25 03:56:22;;;;;;;10.75;4.43;;;;;;;;;;5064799;28;20268;-69
2023/05/25 03:58:48;;;;;;;4.85;3.45;;;;;;;;;;5065079;28;20204;-69
2023/05/25 04:01:15;;;;;;;8.18;3.60;;;;;;;;;;5064848;28;20197;-69
2023/05/25 04:03:41;;;;;;;7.63;3.88;;;;;;;;;;5064504;28;20560;-69
2023/05/25 04:06:08;;;;;;;6.15;3.65;;;;;;;;;;5064951;28;20635;-69
2023/05/25 04:08:34;;;;;;;8.68;3.92;;;;;;;;;;5064622;28;20197;-69
2023/05/25 04:11:01;;;;;;;8.52;3.88;;;;;;;;;;5064663;28;20205;-69
2023/05/25 04:13:28;;;;;;;8.20;3.92;;;;;;;;;;5064298;28;20285;-69
2023/05/25 04:15:55;;;;;;;9.55;4.28;;;;;;;;;;5064338;28;20524;-69
2023/05/25 04:18:21;;;;;;;9.18;3.97;;;;;;;;;;5063843;28;20355;-68
2023/05/25 04:20:47;;;;;;;13.57;4.32;;;;;;;;;;5064256;28;20431;-68
2023/05/25 04:23:14;;;;;;;10.68;4.45;;;;;;;;;;5064068;28;20255;-69
2023/05/25 04:25:40;;;;;;;9.98;4.22;;;;;;;;;;5064487;28;20370;-69
2023/05/25 04:28:07;;;;;;;9.85;4.13;;;;;;;;;;5064040;28;20225;-69
2023/05/25 04:30:35;;;;;;;10.10;4.13;;;;;;;;;;5064081;28;20197;-68
2023/05/25 04:33:01;;;;;;;11.32;4.63;;;;;;;;;;5064005;28;20197;-69
2023/05/25 04:35:27;;;;;;;6.70;4.03;;;;;;;;;;5064405;28;20200;-68
2023/05/25 04:37:55;;;;;;;11.05;4.30;;;;;;;;;;5063947;28;20201;-68
2023/05/25 04:40:21;;;;;;;11.50;4.28;;;;;;;;;;5063760;28;20446;-68
2023/05/25 04:42:48;;;;;;;12.23;4.40;;;;;;;;;;5063860;28;20205;-68
2023/05/25 04:45:16;;;;;;;9.60;4.00;;;;;;;;;;5063945;28;20220;-68
2023/05/25 04:47:44;;;;;;;9.38;4.50;;;;;;;;;;5063750;28;20264;-68
2023/05/25 04:50:10;;;;;;;10.50;4.10;;;;;;;;;;5063754;28;20423;-68
2023/05/25 04:52:37;;;;;;;6.80;3.67;;;;;;;;;;5063533;28;20201;-68
2023/05/25 04:55:03;;;;;;;9.45;4.15;;;;;;;;;;5063952;28;20193;-68
2023/05/25 04:57:30;;;;;;;15.27;4.10;;;;;;;;;;5064148;28;20213;-68
2023/05/25 04:59:56;;;;;;;10.88;4.25;;;;;;;;;;5063304;28;20205;-68
2023/05/25 05:02:23;;;;;;;9.38;3.95;;;;;;;;;;5063644;28;20197;-68
2023/05/25 05:04:52;;;;;;;11.35;4.05;;;;;;;;;;5063066;28;20432;-68
2023/05/25 05:07:19;;;;;;;9.80;4.05;;;;;;;;;;5063099;28;20197;-68
2023/05/25 05:09:45;;;;;;;14.90;4.40;;;;;;;;;;5063041;28;20394;-68
2023/05/25 05:12:11;;;;;;;8.27;4.53;;;;;;;;;;5063099;28;20505;-68
2023/05/25 05:14:37;;;;;;;9.82;4.15;;;;;;;;;;5062859;28;20205;-68
2023/05/25 05:17:04;;;;;;;11.02;3.88;;;;;;;;;;5063110;28;20197;-69
2023/05/25 05:19:31;;;;;;;7.97;3.97;;;;;;;;;;5063216;28;20197;-68
2023/05/25 05:21:59;;;;;;;10.05;3.88;;;;;;;;;;5062871;28;20201;-68
2023/05/25 05:24:26;;;;;;;10.85;4.00;;;;;;;;;;5062576;28;20224;-68
2023/05/25 05:26:52;;;;;;;11.43;4.47;;;;;;;;;;5062974;28;20197;-68
2023/05/25 05:29:18;;;;;;;15.45;6.00;;;;;;;;;;5062808;28;20364;-68
2023/05/25 05:31:45;;;;;;;9.38;4.85;;;;;;;;;;5062982;28;20388;-68
2023/05/25 05:34:11;;;;;;;12.20;4.45;;;;;;;;;;5062592;28;20193;-68
2023/05/25 05:36:37;;;;;;;12.20;5.07;;;;;;;;;;5062541;28;20200;-69
2023/05/25 05:39:05;;;;;;;11.20;4.90;;;;;;;;;;5062751;28;20201;-69
2023/05/25 05:41:31;;;;;;;10.50;4.38;;;;;;;;;;5062792;28;20197;-69
2023/05/25 05:43:57;;;;;;;9.10;4.30;;;;;;;;;;5062191;28;20217;-69
2023/05/25 05:46:23;;;;;;;9.50;4.70;;;;;;;;;;5063253;28;20197;-60
2023/05/25 05:48:50;;;;;;;11.27;4.03;;;;;;;;;;5053826;28;20209;-61
2023/05/25 05:51:16;;;;;;;8.65;4.40;;;;;;;;;;5056010;28;20255;-61
2023/05/25 05:53:42;;;;;;;8.50;4.63;;;;;;;;;;5057618;28;20437;-61
2023/05/25 05:56:16;;;;;;;12.90;5.05;;;;;;;;;;5057724;28;20231;-61
2023/05/25 05:58:42;;;;;;;11.50;4.80;;;;;;;;;;5057569;28;20439;-61
2023/05/25 06:01:08;;;;;;;17.67;5.30;;;;;;;;;;5039480;28;20740;-61
2023/05/25 06:03:36;;;;;;;12.57;5.25;;;;;;;;;;5048123;28;20537;-60
2023/05/25 06:06:03;;;;;;;12.98;4.75;;;;;;;;;;5047689;28;20568;-61
2023/05/25 06:08:29;;;;;;;11.93;5.13;;;;;;;;;;5057632;28;20209;-61
2023/05/25 06:10:55;;;;;;;14.25;4.82;;;;;;;;;;5037837;28;20447;-61
2023/05/25 06:13:23;;;;;;;17.48;4.53;;;;;;;;;;5036199;28;20416;-61
2023/05/25 06:15:49;;;;;;;9.35;5.03;;;;;;;;;;5036752;28;20418;-61
2023/05/25 06:18:15;;;;;;;18.70;5.70;;;;;;;;;;5036965;28;20213;-60
2023/05/25 06:20:42;;;;;;;12.43;4.85;;;;;;;;;;5054885;28;20217;-59
2023/05/25 06:23:10;;;;;;;11.77;5.13;;;;;;;;;;5056662;28;20247;-59
2023/05/25 06:25:36;;;;;;;9.60;4.78;;;;;;;;;;5055866;28;20224;-60
2023/05/25 06:28:02;;;;;;;9.18;5.15;;;;;;;;;;5055627;28;20228;-60
2023/05/25 06:30:30;;;;;;;15.90;5.30;;;;;;;;;;5051381;28;20213;-60
2023/05/25 06:32:56;;;;;;;11.82;5.38;;;;;;;;;;5054862;28;20208;-60
2023/05/25 06:35:22;;;;;;;11.07;5.07;;;;;;;;;;5052564;28;20952;-60
2023/05/25 06:37:49;;;;;;;15.55;5.53;;;;;;;;;;5047616;28;20507;-60
2023/05/25 06:40:15;;;;;;;10.05;4.82;;;;;;;;;;5052445;28;20304;-60
2023/05/25 06:42:42;;;;;;;13.02;5.30;;;;;;;;;;5045928;28;20214;-60
2023/05/25 06:45:08;;;;;;;12.68;5.25;;;;;;;;;;5039512;28;20251;-60
2023/05/25 06:47:36;;;;;;;9.43;5.00;;;;;;;;;;5053891;28;20209;-60
2023/05/25 06:50:02;;;;;;;8.85;4.82;;;;;;;;;;5056105;28;20216;-61
2023/05/25 06:52:30;;;;;;;15.73;5.60;;;;;;;;;;5058511;28;20287;-60
2023/05/25 06:54:56;;;;;;;7.95;4.85;;;;;;;;;;5059171;28;20711;-59
2023/05/25 06:57:23;;;;;;;11.00;5.53;;;;;;;;;;5058773;28;20227;-60
2023/05/25 06:59:49;;;;;;;10.05;4.88;;;;;;;;;;5058561;28;20205;-62
2023/05/25 07:02:16;;;;;;;13.15;5.28;;;;;;;;;;5058104;28;20398;-60
2023/05/25 07:04:43;;;;;;;9.35;4.63;;;;;;;;;;5057940;28;20623;-61
2023/05/25 07:07:11;;;;;;;13.85;5.78;;;;;;;;;;5058283;28;20453;-60
2023/05/25 07:09:38;;;;;;;12.77;5.22;;;;;;;;;;5058424;28;20205;-60
2023/05/25 07:12:06;;;;;;;9.80;5.00;;;;;;;;;;5058135;28;20217;-61
2023/05/25 07:14:32;;;;;;;11.10;5.28;;;;;;;;;;5058067;28;20273;-60
2023/05/25 07:16:58;;;;;;;7.03;5.15;;;;;;;;;;5056758;28;20240;-60
2023/05/25 07:19:25;;;;;;;12.48;5.07;;;;;;;;;;5057762;28;20213;-61
2023/05/25 07:21:52;;;;;;;11.68;5.32;;;;;;;;;;5058402;28;20508;-61
2023/05/25 07:24:18;;;;;;;10.75;5.07;;;;;;;;;;5057643;28;20233;-60
2023/05/25 07:26:45;;;;;;;11.85;4.85;;;;;;;;;;5058358;28;20248;-61
2023/05/25 07:29:11;;;;;;;9.23;4.90;;;;;;;;;;5058108;28;20551;-60
2023/05/25 07:31:37;;;;;;;11.48;4.80;;;;;;;;;;5055217;28;20383;-61
2023/05/25 07:34:04;;;;;;;11.55;5.50;;;;;;;;;;5053330;28;20213;-61
2023/05/25 07:36:30;;;;;;;9.57;5.03;;;;;;;;;;5057848;28;20209;-61
2023/05/25 07:38:57;;;;;;;11.00;5.30;;;;;;;;;;5057768;28;20270;-61
2023/05/25 07:41:25;;;;;;;10.68;5.22;;;;;;;;;;5056840;28;20279;-60
2023/05/25 07:43:51;;;;;;;10.60;4.93;;;;;;;;;;5056379;28;20215;-61
2023/05/25 07:46:21;;;;;;;13.73;5.50;;;;;;;;;;5054000;28;20455;-61
2023/05/25 07:48:47;;;;;;;12.43;5.70;;;;;;;;;;5058140;28;20224;-61
2023/05/25 07:51:13;;;;;;;12.30;5.75;;;;;;;;;;5056742;28;20201;-61
2023/05/25 07:53:41;;;;;;;11.73;5.40;;;;;;;;;;5060459;28;20204;-60
2023/05/25 07:56:09;;;;;;;10.40;5.47;;;;;;;;;;5061322;28;20286;-61
2023/05/25 07:58:35;;;;;;;10.82;5.68;;;;;;;;;;5061682;28;20834;-60
2023/05/25 08:01:02;;;;;;;15.52;5.40;;;;;;;;;;5060582;28;20268;-61
2023/05/25 08:03:28;;;;;;;17.70;6.30;;;;;;;;;;5061514;28;20272;-61
2023/05/25 08:05:54;;;;;;;12.35;5.50;;;;;;;;;;5059705;28;20237;-61
2023/05/25 08:08:21;;;;;;;13.52;5.30;;;;;;;;;;5060227;28;20603;-61
2023/05/25 08:10:47;;;;;;;11.05;5.20;;;;;;;;;;5060590;28;20201;-61
2023/05/25 08:13:15;;;;;;;10.57;5.53;;;;;;;;;;5060954;28;20217;-61
2023/05/25 08:15:41;;;;;;;18.17;6.07;;;;;;;;;;5057759;28;20295;-60
2023/05/25 08:18:07;;;;;;;8.85;5.30;;;;;;;;;;5057713;28;20520;-61
2023/05/25 08:20:33;;;;;;;10.68;5.57;;;;;;;;;;5060578;28;20209;-61
2023/05/25 08:23:00;;;;;;;10.65;6.03;;;;;;;;;;5061372;28;20205;-61
2023/05/25 08:25:26;;;;;;;8.32;5.35;;;;;;;;;;5060474;28;20263;-61
2023/05/25 08:27:53;;;;;;;10.02;5.10;;;;;;;;;;5060756;28;20287;-61
2023/05/25 08:30:20;;;;;;;12.18;5.38;;;;;;;;;;5060778;28;20378;-61
2023/05/25 08:32:47;;;;;;;14.55;5.70;;;;;;;;;;5061023;28;20205;-61
2023/05/25 08:35:13;;;;;;;8.55;4.97;;;;;;;;;;5060856;28;20481;-60
2023/05/25 08:37:40;;;;;;;16.02;6.20;;;;;;;;;;5053070;28;20232;-61
2023/05/25 08:40:08;;;;;;;11.25;6.13;;;;;;;;;;5060759;28;20509;-61
2023/05/25 08:42:34;;;;;;;10.48;5.63;;;;;;;;;;5060222;28;20212;-61
2023/05/25 08:45:01;;;;;;;10.95;5.40;;;;;;;;;;5060817;28;20229;-61
2023/05/25 08:47:31;;;;;;;13.18;6.07;;;;;;;;;;5060400;28;20215;-61
2023/05/25 08:49:57;;;;;;;12.30;5.80;;;;;;;;;;5059208;28;20543;-61
2023/05/25 08:52:26;;;;;;;14.55;5.47;;;;;;;;;;5060646;28;20250;-61
2023/05/25 08:54:54;;;;;;;14.52;6.03;;;;;;;;;;5060910;28;20201;-61
2023/05/25 08:57:23;;;;;;;8.63;4.88;;;;;;;;;;5059674;28;20209;-60
2023/05/25 08:59:51;;;;;;;18.98;5.63;;;;;;;;;;5059180;28;20243;-61
2023/05/25 09:02:22;;;;;;;9.50;5.47;;;;;;;;;;5059753;28;20247;-61
2023/05/25 09:04:49;;;;;;;12.20;5.22;;;;;;;;;;5059438;28;20283;-61
2023/05/25 09:07:16;;;;;;;11.25;5.22;;;;;;;;;;5057398;28;20515;-61
2023/05/25 09:09:42;;;;;;;7.63;5.47;;;;;;;;;;5060861;28;20456;-60
2023/05/25 09:12:08;;;;;;;13.57;4.90;;;;;;;;;;5059519;28;20217;-61
2023/05/25 09:14:36;;;;;;;10.80;5.57;;;;;;;;;;5058581;28;20258;-61
2023/05/25 09:17:02;;;;;;;12.20;5.32;;;;;;;;;;5051892;28;20285;-61
2023/05/25 09:19:29;;;;;;;11.80;4.80;;;;;;;;;;5059930;28;20216;-61
2023/05/25 09:21:56;;;;;;;11.80;5.10;;;;;;;;;;5060663;28;20259;-61
2023/05/25 09:24:23;;;;;;;14.43;5.80;;;;;;;;;;5059934;28;20420;-61
2023/05/25 09:26:49;;;;;;;12.57;5.32;;;;;;;;;;5060529;28;20201;-60
2023/05/25 09:29:16;;;;;;;9.10;5.00;;;;;;;;;;5058970;28;20209;-61
2023/05/25 09:31:42;;;;;;;10.30;4.82;;;;;;;;;;5053542;28;20241;-61
2023/05/25 09:34:11;;;;;;;11.60;5.13;;;;;;;;;;5058192;28;20205;-61
2023/05/25 09:36:39;;;;;;;11.60;5.03;;;;;;;;;;5059226;28;20208;-61
2023/05/25 09:39:07;;;;;;;7.45;4.85;;;;;;;;;;5059793;28;20209;-61
2023/05/25 09:41:34;;;;;;;8.45;4.75;;;;;;;;;;5057895;28;20209;-61
2023/05/25 09:44:00;;;;;;;11.98;5.22;;;;;;;;;;5055909;28;20247;-61
2023/05/25 09:46:27;;;;;;;8.40;4.57;;;;;;;;;;5059165;28;20229;-62
2023/05/25 09:48:53;;;;;;;9.00;4.88;;;;;;;;;;5055434;28;20206;-62
2023/05/25 09:51:20;;;;;;;8.63;4.95;;;;;;;;;;5049515;28;20247;-62
2023/05/25 09:53:46;;;;;;;9.95;4.97;;;;;;;;;;5058932;28;20209;-62
2023/05/25 09:56:16;;;;;;;10.48;5.20;;;;;;;;;;5047789;28;20202;-61
2023/05/25 09:58:42;;;;;;;7.93;4.63;;;;;;;;;;5038975;28;20324;-60
2023/05/25 10:01:09;;;;;;;6.07;4.57;;;;;;;;;;5046670;28;20524;-60
2023/05/25 10:03:36;;;;;;;8.30;5.03;;;;;;;;;;5037597;28;20249;-60
2023/05/25 10:06:03;;;;;;;7.85;4.60;;;;;;;;;;5036155;28;20233;-60
2023/05/25 10:08:29;;;;;;;8.73;4.93;;;;;;;;;;5044024;28;20212;-60
2023/05/25 10:10:55;;;;;;;16.67;5.43;;;;;;;;;;5054355;28;20209;-61
2023/05/25 10:13:24;;;;;;;9.77;5.10;;;;;;;;;;5053172;28;20213;-61
2023/05/25 10:15:52;;;;;;;8.40;4.75;;;;;;;;;;5049934;28;20268;-60
2023/05/25 10:18:22;;;;;;;8.38;4.70;;;;;;;;;;5033623;28;20213;-61
2023/05/25 10:20:49;;;;;;;7.07;5.38;;;;;;;;;;5052007;28;20447;-61
2023/05/25 10:23:16;;;;;;;9.65;4.90;;;;;;;;;;5056158;28;20288;-60
2023/05/25 10:25:44;;;;;;;12.60;5.13;;;;;;;;;;5056096;28;20282;-61
2023/05/25 10:28:14;;;;;;;8.70;4.75;;;;;;;;;;5056097;28;20640;-60
2023/05/25 10:30:42;;;;;;;5.45;4.68;;;;;;;;;;5044127;28;20259;-60
2023/05/25 10:33:09;;;;;;;9.82;4.90;;;;;;;;;;5057013;28;20215;-61
2023/05/25 10:35:37;;;;;;;11.68;4.97;;;;;;;;;;5048784;28;20521;-61
2023/05/25 10:38:04;;;;;;;10.68;5.25;;;;;;;;;;5037380;28;20329;-60
2023/05/25 10:40:31;;;;;;;12.85;4.68;;;;;;;;;;5037399;28;20527;-60
2023/05/25 10:42:57;;;;;;;9.43;4.45;;;;;;;;;;5036961;28;20205;-61
2023/05/25 10:45:24;;;;;;;10.52;4.85;;;;;;;;;;5047234;28;20424;-61
2023/05/25 10:47:51;;;;;;;9.00;4.88;;;;;;;;;;5056706;28;20204;-60
2023/05/25 10:50:19;;;;;;;12.07;5.18;;;;;;;;;;5055976;28;20228;-61
2023/05/25 10:52:45;;;;;;;8.60;4.22;;;;;;;;;;5056242;28;20213;-61
2023/05/25 10:55:11;;;;;;;9.73;4.28;;;;;;;;;;5056255;28;20209;-61
2023/05/25 10:57:37;;;;;;;7.45;4.55;;;;;;;;;;5036818;28;20218;-60
2023/05/25 11:00:06;;;;;;;9.73;4.93;;;;;;;;;;5043568;28;20213;-61
2023/05/25 11:02:47;;;;;;;8.15;4.00;;;;;;;;;;5055646;28;20218;-61
2023/05/25 11:05:38;;;;;;;10.23;4.50;;;;;;;;;;5047183;28;20275;-60
2023/05/25 11:08:06;;;;;;;6.40;4.38;;;;;;;;;;5025999;28;20214;-60
2023/05/25 11:10:42;;;;;;;7.00;4.30;;;;;;;;;;5035866;28;20409;-60
2023/05/25 11:13:21;;;;;;;9.25;4.45;;;;;;;;;;5035987;28;20255;-60
2023/05/25 11:15:47;;;;;;;7.43;4.38;;;;;;;;;;5055142;28;20728;-61
2023/05/25 11:18:14;;;;;;;9.00;4.15;;;;;;;;;;5055785;28;20217;-61
2023/05/25 11:20:40;;;;;;;10.77;4.28;;;;;;;;;;5051551;28;20221;-60
2023/05/25 11:23:22;;;;;;;11.60;4.40;;;;;;;;;;5054124;28;20438;-61
2023/05/25 11:25:49;;;;;;;6.43;3.95;;;;;;;;;;5054463;28;20229;-61
2023/05/25 11:28:15;;;;;;;8.13;4.00;;;;;;;;;;5058853;28;20572;-60
2023/05/25 11:30:42;;;;;;;8.25;4.57;;;;;;;;;;5057188;28;20263;-59
2023/05/25 11:33:08;;;;;;;8.45;4.55;;;;;;;;;;5056125;28;20266;-60
2023/05/25 11:35:36;;;;;;;8.20;4.38;;;;;;;;;;5052087;28;20461;-60
2023/05/25 11:38:05;;;;;;;7.30;4.07;;;;;;;;;;5051139;28;20205;-59
2023/05/25 11:40:31;;;;;;;6.05;4.32;;;;;;;;;;5052818;28;20533;-61
2023/05/25 11:43:00;;;;;;;7.78;3.92;;;;;;;;;;5047493;28;20290;-60
2023/05/25 11:45:28;;;;;;;7.72;4.43;;;;;;;;;;5038326;28;20233;-61
2023/05/25 11:47:54;;;;;;;10.45;3.92;;;;;;;;;;5043750;28;20417;-60
2023/05/25 11:50:20;;;;;;;8.32;4.38;;;;;;;;;;5039820;28;20213;-60
2023/05/25 11:52:47;;;;;;;8.10;4.43;;;;;;;;;;5053173;28;20247;-60
2023/05/25 11:55:14;;;;;;;9.73;4.22;;;;;;;;;;5059715;28;20232;-60
2023/05/25 11:57:40;;;;;;;11.65;4.40;;;;;;;;;;5059211;28;20213;-60
2023/05/25 12:00:10;;;;;;;4.70;3.90;;;;;;;;;;5058737;28;20215;-61
2023/05/25 12:02:37;;;;;;;7.40;4.45;;;;;;;;;;5042577;28;20264;-60
2023/05/25 12:05:03;;;;;;;8.10;4.47;;;;;;;;;;5040018;28;20259;-60
2023/05/25 12:07:31;;;;;;;9.55;4.40;;;;;;;;;;5045588;28;20237;-59
2023/05/25 12:10:06;;;;;;;5.63;4.45;;;;;;;;;;5058408;28;20247;-61
2023/05/25 12:12:37;;;;;;;8.20;4.78;;;;;;;;;;5048598;28;20197;-62
2023/05/25 12:15:04;;;;;;;4.68;4.25;;;;;;;;;;5038706;28;20661;-61
2023/05/25 12:17:32;;;;;;;8.13;4.20;;;;;;;;;;5039103;28;20451;-62
2023/05/25 12:19:58;;;;;;;7.57;4.40;;;;;;;;;;5049970;28;20397;-61
2023/05/25 12:22:25;;;;;;;9.93;4.80;;;;;;;;;;5058679;28;20486;-61
2023/05/25 12:24:51;;;;;;;8.48;3.95;;;;;;;;;;5057103;28;20216;-61
2023/05/25 12:27:17;;;;;;;4.68;4.05;;;;;;;;;;5039237;28;20414;-61
2023/05/25 12:29:45;;;;;;;8.88;3.92;;;;;;;;;;5052860;28;20236;-61
2023/05/25 12:32:11;;;;;;;6.13;4.10;;;;;;;;;;5056561;28;20254;-62
2023/05/25 12:34:39;;;;;;;7.88;3.78;;;;;;;;;;5039365;28;20209;-60
2023/05/25 12:37:05;;;;;;;6.78;3.97;;;;;;;;;;5038754;28;20209;-61
2023/05/25 12:39:33;;;;;;;8.27;4.05;;;;;;;;;;5038443;28;20552;-61
2023/05/25 12:42:00;;;;;;;4.50;3.47;;;;;;;;;;5038889;28;20237;-61
2023/05/25 12:44:30;;;;;;;4.45;4.05;;;;;;;;;;5051588;28;20445;-60
2023/05/25 12:46:57;;;;;;;5.55;3.90;;;;;;;;;;5057708;28;20232;-60
2023/05/25 12:49:24;;;;;;;6.80;3.80;;;;;;;;;;5058669;28;20254;-61
2023/05/25 12:51:52;;;;;;;6.20;3.53;;;;;;;;;;5058219;28;20234;-61
2023/05/25 12:54:32;;;;;;;6.72;3.58;;;;;;;;;;5057714;28;20258;-61
2023/05/25 12:57:01;;;;;;;5.20;4.20;;;;;;;;;;5057859;28;20293;-60
2023/05/25 12:59:27;;;;;;;4.75;3.45;;;;;;;;;;5046800;28;20284;-60
2023/05/25 13:01:53;;;;;;;5.15;3.95;;;;;;;;;;5037878;28;20458;-61
2023/05/25 13:04:20;;;;;;;6.95;3.92;;;;;;;;;;5051247;28;20216;-61
2023/05/25 13:06:46;;;;;;;9.95;4.28;;;;;;;;;;5041832;28;20840;-61
2023/05/25 13:09:13;;;;;;;6.38;4.15;;;;;;;;;;5057492;28;20582;-61
2023/05/25 13:11:40;;;;;;;5.57;4.50;;;;;;;;;;5057818;28;20212;-61
2023/05/25 13:14:06;;;;;;;6.28;4.07;;;;;;;;;;5045559;28;20216;-61
2023/05/25 13:16:32;;;;;;;7.30;4.35;;;;;;;;;;5054212;28;20249;-61
2023/05/25 13:18:59;;;;;;;7.03;4.35;;;;;;;;;;5055423;28;20499;-61
2023/05/25 13:21:25;;;;;;;7.80;4.20;;;;;;;;;;5047895;28;20583;-61
2023/05/25 13:23:51;;;;;;;6.13;3.97;;;;;;;;;;5036573;28;20426;-60
2023/05/25 13:26:19;;;;;;;7.47;4.50;;;;;;;;;;5038026;28;20402;-61
2023/05/25 13:28:45;;;;;;;9.95;4.65;;;;;;;;;;5036742;28;20268;-61
2023/05/25 13:31:11;;;;;;;8.05;4.28;;;;;;;;;;5054427;28;20258;-60
2023/05/25 13:33:38;;;;;;;8.40;4.25;;;;;;;;;;5057793;28;20411;-61
2023/05/25 13:36:07;;;;;;;6.82;4.05;;;;;;;;;;5053607;28;20298;-60
2023/05/25 13:38:34;;;;;;;7.03;4.10;;;;;;;;;;5045918;28;20244;-61
2023/05/25 13:41:00;;;;;;;5.97;3.88;;;;;;;;;;5036875;28;20216;-60
2023/05/25 13:43:28;;;;;;;6.95;4.18;;;;;;;;;;5041646;28;20247;-61
2023/05/25 13:45:54;;;;;;;7.85;4.20;;;;;;;;;;5047190;28;20217;-61
2023/05/25 13:48:21;;;;;;;5.07;4.00;;;;;;;;;;5043257;28;20444;-61
2023/05/25 13:50:48;;;;;;;12.15;4.63;;;;;;;;;;5051362;28;20359;-60
2023/05/25 13:53:14;;;;;;;9.60;4.20;;;;;;;;;;5048373;28;20250;-60
2023/05/25 13:55:40;;;;;;;7.80;3.90;;;;;;;;;;5056376;28;20212;-61
2023/05/25 13:58:07;;;;;;;9.43;4.10;;;;;;;;;;5056661;28;20223;-61
2023/05/25 14:00:35;;;;;;;5.07;3.88;;;;;;;;;;5041627;28;20213;-62
2023/05/25 14:03:01;;;;;;;6.53;3.97;;;;;;;;;;5047730;28;20426;-61
2023/05/25 14:05:29;;;;;;;10.00;4.38;;;;;;;;;;5036892;28;20236;-61
2023/05/25 14:07:55;;;;;;;4.43;3.90;;;;;;;;;;5058289;28;20224;-60
2023/05/25 14:10:21;;;;;;;11.70;4.50;;;;;;;;;;5058589;28;20275;-61
2023/05/25 14:12:48;;;;;;;9.93;4.25;;;;;;;;;;5058875;28;20246;-61
2023/05/25 14:15:14;;;;;;;7.22;4.10;;;;;;;;;;5061082;28;20383;-60
2023/05/25 14:17:41;;;;;;;5.35;3.67;;;;;;;;;;5059158;28;20194;-60
2023/05/25 14:20:10;;;;;;;8.50;4.00;;;;;;;;;;5043673;28;20268;-63
2023/05/25 14:22:36;;;;;;;6.25;3.97;;;;;;;;;;5043505;28;20201;-63
2023/05/25 14:25:03;;;;;;;11.27;4.03;;;;;;;;;;5043616;28;20423;-63
2023/05/25 14:27:29;;;;;;;7.43;3.85;;;;;;;;;;5043377;28;20272;-63
2023/05/25 14:29:55;;;;;;;8.13;4.32;;;;;;;;;;5043376;28;20201;-63
2023/05/25 14:32:22;;;;;;;7.90;3.95;;;;;;;;;;5043401;28;20206;-63
2023/05/25 14:34:49;;;;;;;14.63;4.65;;;;;;;;;;5043350;28;20259;-61
2023/05/25 14:37:16;;;;;;;10.35;4.35;;;;;;;;;;5044336;28;20208;-61